Time;durP1;ratioP1;P1;durP2;ratioP2;P2;SDS_P1;SDS_P2;PMS_P1;PMS_P2;Temp;Humidity;BMP_temperature;BMP_pressure;BME280_temperature;BME280_humidity;BME280_pressure;Samples;Min_cycle;Max_cycle;Signal;HPM_P1;HPM_P2
2022/05/23 00:00:12;;;;;;;2.03;1.60;;;16.40;64.50;;;;;;5058447;28;20519;-66
2022/05/23 00:02:38;;;;;;;1.83;1.73;;;16.40;64.60;;;;;;5067977;28;20032;-67
2022/05/23 00:05:04;;;;;;;1.73;1.63;;;16.30;64.60;;;;;;5056241;28;20033;-65
2022/05/23 00:07:36;;;;;;;3.92;1.88;;;16.30;64.80;;;;;;5055885;28;20393;-67
2022/05/23 00:10:04;;;;;;;3.78;1.67;;;16.20;65.10;;;;;;5059898;28;20459;-66
2022/05/23 00:12:29;;;;;;;2.65;1.77;;;16.20;65.30;;;;;;5049683;28;20069;-64
2022/05/23 00:14:55;;;;;;;2.83;1.70;;;16.20;65.30;;;;;;5051500;28;20064;-66
2022/05/23 00:17:21;;;;;;;1.77;1.67;;;16.20;65.30;;;;;;5050882;28;20037;-66
2022/05/23 00:19:47;;;;;;;1.80;1.70;;;16.20;65.40;;;;;;5048203;28;20515;-65
2022/05/23 00:22:14;;;;;;;1.90;1.75;;;16.10;65.40;;;;;;5051886;28;20103;-65
2022/05/23 00:24:45;;;;;;;2.00;1.58;;;16.10;65.40;;;;;;5047712;28;20376;-66
2022/05/23 00:27:13;;;;;;;3.30;2.13;;;16.10;65.50;;;;;;5049491;28;20401;-66
2022/05/23 00:29:38;;;;;;;3.55;2.45;;;16.10;66.00;;;;;;5049529;28;20037;-66
2022/05/23 00:37:33;;;;;;;2.20;2.03;;;16.20;65.80;;;;;;5050473;28;20047;-66
2022/05/23 00:39:59;;;;;;;3.03;1.88;;;16.20;65.50;;;;;;5055178;28;20037;-65
2022/05/23 00:45:15;;;;;;;2.90;1.98;;;16.30;65.80;;;;;;5049094;28;20040;-66
2022/05/23 00:47:42;;;;;;;2.03;1.92;;;16.40;65.60;;;;;;5048603;28;20407;-65
2022/05/23 00:50:09;;;;;;;2.70;2.03;;;16.40;65.50;;;;;;5051455;28;20044;-65
2022/05/23 00:52:43;;;;;;;1.98;1.88;;;16.30;65.50;;;;;;5048884;28;20037;-65
2022/05/23 00:55:19;;;;;;;3.22;2.22;;;16.30;66.40;;;;;;5051073;28;20071;-66
2022/05/23 00:57:47;;;;;;;2.17;1.98;;;16.30;66.00;;;;;;5048432;28;20058;-65
2022/05/23 01:00:14;;;;;;;3.88;2.30;;;16.30;65.70;;;;;;5051426;28;20445;-66
2022/05/23 01:02:43;;;;;;;2.40;2.00;;;16.30;65.70;;;;;;5047619;28;20128;-65
2022/05/23 01:05:10;;;;;;;2.38;2.03;;;16.30;65.80;;;;;;5048916;28;20095;-66
2022/05/23 01:07:35;;;;;;;2.42;1.85;;;16.30;65.70;;;;;;5045602;28;20528;-65
2022/05/23 01:10:02;;;;;;;2.30;2.10;;;16.30;65.90;;;;;;5047448;28;20134;-67
2022/05/23 01:12:28;;;;;;;2.05;1.92;;;16.30;65.80;;;;;;5043982;28;20364;-63
2022/05/23 01:14:59;;;;;;;1.98;1.85;;;16.40;65.90;;;;;;5050907;28;20040;-66
2022/05/23 01:17:27;;;;;;;5.47;2.25;;;16.30;66.30;;;;;;5047081;28;20499;-66
2022/05/23 01:19:53;;;;;;;2.35;2.00;;;16.30;66.20;;;;;;5053045;28;20122;-64
2022/05/23 01:22:37;;;;;;;2.55;2.35;;;16.30;66.30;;;;;;5047902;28;20115;-66
2022/05/23 01:25:18;;;;;;;3.08;2.15;;;16.30;66.20;;;;;;5047289;28;20040;-66
2022/05/23 01:27:46;;;;;;;2.17;2.00;;;16.30;67.30;;;;;;5049997;28;20037;-66
2022/05/23 01:30:12;;;;;;;2.40;1.75;;;16.30;66.40;;;;;;5048624;28;20143;-66
2022/05/23 01:32:38;;;;;;;2.47;2.28;;;16.30;66.20;;;;;;5049448;28;20504;-66
2022/05/23 01:35:06;;;;;;;3.03;2.45;;;16.20;66.40;;;;;;5049843;28;20068;-65
2022/05/23 01:37:31;;;;;;;2.72;2.53;;;16.20;66.70;;;;;;5046114;28;20041;-64
2022/05/23 01:39:57;;;;;;;2.33;2.15;;;16.20;67.10;;;;;;5047593;28;20029;-65
2022/05/23 01:42:22;;;;;;;2.58;2.38;;;16.10;66.90;;;;;;5048757;28;20037;-66
2022/05/23 01:44:48;;;;;;;2.80;2.45;;;16.00;67.10;;;;;;5048656;28;20040;-66
2022/05/23 01:47:17;;;;;;;3.05;2.75;;;16.00;68.20;;;;;;5047879;28;20132;-66
2022/05/23 01:49:42;;;;;;;3.35;2.75;;;16.00;67.60;;;;;;5046981;28;20568;-66
2022/05/23 01:52:09;;;;;;;2.95;2.65;;;16.00;67.40;;;;;;5049727;28;20124;-66
2022/05/23 01:54:36;;;;;;;2.70;2.50;;;16.00;67.40;;;;;;5049725;28;20033;-66
2022/05/23 01:57:03;;;;;;;2.83;2.63;;;16.00;67.50;;;;;;5053444;28;20048;-66
2022/05/23 02:02:14;;;;;;;2.90;2.60;;;16.00;68.00;;;;;;5050126;28;20032;-67
2022/05/23 02:04:40;;;;;;;2.92;2.60;;;16.00;67.60;;;;;;5043880;28;20037;-66
2022/05/23 02:07:06;;;;;;;3.45;2.92;;;16.00;67.70;;;;;;5049301;28;20051;-65
2022/05/23 02:09:33;;;;;;;2.95;2.65;;;16.00;67.80;;;;;;5049476;28;20511;-66
2022/05/23 02:11:59;;;;;;;3.65;2.80;;;16.00;67.90;;;;;;5048369;28;20041;-66
2022/05/23 02:14:25;;;;;;;2.75;2.55;;;16.00;67.90;;;;;;5048946;28;20041;-66
2022/05/23 02:16:50;;;;;;;4.43;2.60;;;15.90;67.80;;;;;;5050787;28;20036;-66
2022/05/23 02:19:16;;;;;;;2.30;2.20;;;16.00;67.80;;;;;;5050656;28;20036;-66
2022/05/23 02:21:42;;;;;;;3.15;2.28;;;16.00;67.70;;;;;;5054571;28;20034;-66
2022/05/23 02:24:08;;;;;;;2.63;2.30;;;15.90;67.80;;;;;;5047963;28;20029;-66
2022/05/23 02:26:34;;;;;;;2.67;2.47;;;16.00;67.70;;;;;;5047319;28;20037;-64
2022/05/23 02:29:01;;;;;;;2.58;2.38;;;16.00;67.80;;;;;;5053550;28;20033;-66
2022/05/23 02:31:27;;;;;;;2.80;2.55;;;16.00;67.60;;;;;;5050802;28;20041;-65
2022/05/23 02:33:53;;;;;;;2.90;2.47;;;16.00;67.80;;;;;;5045817;28;20233;-66
2022/05/23 02:36:19;;;;;;;3.05;2.70;;;16.00;67.90;;;;;;5048646;28;20171;-66
2022/05/23 02:38:45;;;;;;;3.40;2.63;;;15.90;68.10;;;;;;5044495;28;20488;-64
2022/05/23 02:41:11;;;;;;;2.42;2.22;;;15.90;68.10;;;;;;5051106;28;20033;-66
2022/05/23 02:43:36;;;;;;;4.30;2.50;;;15.90;68.20;;;;;;5048590;28;20032;-66
2022/05/23 02:46:03;;;;;;;2.38;2.20;;;15.90;68.30;;;;;;5046623;28;20064;-66
2022/05/23 02:48:28;;;;;;;3.03;2.47;;;15.80;68.30;;;;;;5063585;28;20028;-66
2022/05/23 02:50:54;;;;;;;3.33;2.42;;;15.90;68.50;;;;;;5044365;28;20033;-66
2022/05/23 02:53:20;;;;;;;2.58;2.38;;;15.90;68.50;;;;;;5049764;28;20039;-66
2022/05/23 02:55:46;;;;;;;2.95;2.70;;;15.90;68.50;;;;;;5049792;28;20033;-66
2022/05/23 02:58:11;;;;;;;3.72;2.67;;;15.90;68.70;;;;;;5049280;28;20040;-66
2022/05/23 03:00:38;;;;;;;3.40;2.55;;;15.90;68.70;;;;;;5048217;28;20053;-66
2022/05/23 03:03:06;;;;;;;4.22;2.58;;;15.90;68.90;;;;;;5049315;28;20040;-66
2022/05/23 03:05:45;;;;;;;3.08;2.63;;;15.90;68.70;;;;;;5046702;28;20583;-66
2022/05/23 03:08:13;;;;;;;4.82;2.53;;;16.00;69.50;;;;;;5047035;28;20123;-66
2022/05/23 03:10:39;;;;;;;4.18;2.50;;;15.90;69.00;;;;;;5047409;28;20516;-66
2022/05/23 03:13:06;;;;;;;2.90;2.70;;;15.90;69.00;;;;;;5048704;28;20037;-64
2022/05/23 03:15:32;;;;;;;2.50;2.30;;;15.90;69.20;;;;;;5046687;28;20036;-66
2022/05/23 03:17:59;;;;;;;3.05;2.50;;;15.90;69.10;;;;;;5047827;28;20117;-66
2022/05/23 03:20:25;;;;;;;4.78;2.95;;;15.90;69.20;;;;;;5044549;28;20037;-65
2022/05/23 03:28:22;;;;;;;2.78;2.58;;;15.90;69.30;;;;;;5048537;28;20048;-66
2022/05/23 03:30:48;;;;;;;3.20;2.90;;;15.90;69.30;;;;;;5063265;28;20052;-66
2022/05/23 03:33:15;;;;;;;2.83;2.63;;;15.80;69.60;;;;;;5051050;28;20036;-67
2022/05/23 03:35:42;;;;;;;2.67;2.47;;;15.80;69.70;;;;;;5049329;28;20503;-66
2022/05/23 03:38:08;;;;;;;3.65;2.50;;;15.80;69.70;;;;;;5047526;28;20068;-67
2022/05/23 03:40:36;;;;;;;3.08;2.58;;;15.80;69.70;;;;;;5051177;28;20490;-65
2022/05/23 03:43:02;;;;;;;2.97;2.65;;;15.80;69.90;;;;;;5050365;28;20057;-65
2022/05/23 03:45:28;;;;;;;2.97;2.78;;;15.80;69.90;;;;;;5050589;28;20063;-66
2022/05/23 03:47:55;;;;;;;2.88;2.67;;;15.80;70.10;;;;;;5051948;28;20558;-66
2022/05/23 03:50:22;;;;;;;2.95;2.38;;;15.80;71.20;;;;;;5051483;28;20416;-66
2022/05/23 03:52:48;;;;;;;2.72;2.53;;;15.80;70.20;;;;;;5051152;28;20242;-65
2022/05/23 03:55:14;;;;;;;4.28;3.10;;;15.80;70.20;;;;;;5051407;28;20575;-66
2022/05/23 03:57:40;;;;;;;4.20;3.03;;;15.80;70.30;;;;;;5051615;28;20037;-66
2022/05/23 04:00:08;;;;;;;3.15;2.85;;;15.90;70.60;;;;;;5051076;28;20540;-66
2022/05/23 04:02:34;;;;;;;4.15;3.28;;;15.90;70.60;;;;;;5052273;28;20036;-67
2022/05/23 04:05:01;;;;;;;4.03;3.15;;;15.90;70.40;;;;;;5050227;28;20033;-67
2022/05/23 04:07:27;;;;;;;4.20;3.35;;;16.00;70.80;;;;;;5059441;28;20140;-66
2022/05/23 04:09:53;;;;;;;4.15;3.10;;;16.00;70.70;;;;;;5054040;28;20611;-66
2022/05/23 04:12:18;;;;;;;4.13;3.08;;;16.00;70.80;;;;;;5052864;28;20045;-66
2022/05/23 04:14:44;;;;;;;4.97;3.60;;;16.00;70.70;;;;;;5062016;28;20453;-66
2022/05/23 04:17:10;;;;;;;4.28;3.28;;;16.10;70.80;;;;;;5057694;28;20033;-66
2022/05/23 04:19:36;;;;;;;5.10;3.63;;;16.10;70.80;;;;;;5058402;28;20402;-65
2022/05/23 04:22:02;;;;;;;3.75;3.45;;;16.20;70.80;;;;;;5056188;28;20124;-66
2022/05/23 04:24:28;;;;;;;3.70;3.40;;;16.20;70.70;;;;;;5054511;28;20036;-66
2022/05/23 04:26:55;;;;;;;5.53;2.80;;;16.30;70.80;;;;;;5056500;28;20033;-66
2022/05/23 04:29:22;;;;;;;4.50;3.67;;;16.30;70.60;;;;;;5057881;28;20668;-66
2022/05/23 04:31:48;;;;;;;4.22;3.80;;;16.40;70.60;;;;;;5054332;28;20377;-66
2022/05/23 04:36:59;;;;;;;5.47;3.30;;;16.50;70.70;;;;;;5056359;28;20044;-66
2022/05/23 04:39:25;;;;;;;4.18;3.13;;;16.50;70.20;;;;;;5053787;28;20334;-66
2022/05/23 04:41:51;;;;;;;3.70;3.30;;;16.40;70.10;;;;;;5058501;28;20057;-66
2022/05/23 04:44:16;;;;;;;5.78;3.17;;;16.40;70.00;;;;;;5058249;28;20041;-66
2022/05/23 04:49:44;;;;;;;3.50;3.20;;;16.20;70.80;;;;;;5058577;28;20142;-66
2022/05/23 04:52:14;;;;;;;3.40;3.20;;;16.20;70.70;;;;;;5058069;28;20040;-67
2022/05/23 04:54:41;;;;;;;3.63;3.33;;;16.10;71.40;;;;;;5057147;28;20065;-65
2022/05/23 04:57:09;;;;;;;3.58;3.05;;;16.10;71.30;;;;;;5056523;28;20115;-66
2022/05/23 04:59:35;;;;;;;5.90;3.22;;;16.00;71.30;;;;;;5057932;28;20040;-66
2022/05/23 05:02:02;;;;;;;4.60;3.38;;;16.00;72.00;;;;;;5056337;28;20068;-66
2022/05/23 05:04:29;;;;;;;3.88;3.58;;;16.00;72.50;;;;;;5058591;28;20029;-66
2022/05/23 05:06:54;;;;;;;6.55;3.67;;;16.00;72.70;;;;;;5055061;28;20044;-66
2022/05/23 05:09:20;;;;;;;3.75;3.45;;;16.10;73.00;;;;;;5051534;28;20036;-66
2022/05/23 05:11:46;;;;;;;6.55;5.38;;;16.10;73.00;;;;;;5051729;28;20040;-67
2022/05/23 05:14:12;;;;;;;5.35;4.85;;;16.10;72.80;;;;;;5056176;28;20407;-66
2022/05/23 05:16:37;;;;;;;6.70;5.13;;;16.20;73.00;;;;;;5051766;28;20500;-66
2022/05/23 05:19:03;;;;;;;4.57;3.70;;;16.20;72.70;;;;;;5055051;28;20052;-66
2022/05/23 05:21:29;;;;;;;5.90;3.83;;;16.30;72.50;;;;;;5056462;28;20494;-67
2022/05/23 05:23:55;;;;;;;3.70;3.40;;;16.30;72.60;;;;;;5054306;28;20040;-66
2022/05/23 05:26:22;;;;;;;5.03;3.30;;;16.30;72.60;;;;;;5054294;28;20053;-67
2022/05/23 05:28:48;;;;;;;9.75;3.60;;;16.40;72.30;;;;;;5056702;28;20036;-66
2022/05/23 05:31:22;;;;;;;5.20;3.55;;;16.40;72.60;;;;;;5053806;28;20534;-66
2022/05/23 05:33:52;;;;;;;6.63;3.47;;;16.40;72.90;;;;;;5057261;28;20060;-66
2022/05/23 05:36:22;;;;;;;5.85;3.67;;;16.40;72.50;;;;;;5054663;28;20296;-66
2022/05/23 05:39:08;;;;;;;5.50;3.60;;;16.40;72.70;;;;;;5052611;28;20037;-66
2022/05/23 05:41:49;;;;;;;7.32;3.80;;;16.30;73.70;;;;;;5048988;28;20029;-66
2022/05/23 05:44:20;;;;;;;17.02;4.00;;;16.30;73.90;;;;;;5050754;28;20082;-66
2022/05/23 05:46:54;;;;;;;3.45;3.15;;;16.30;73.50;;;;;;5054423;28;20053;-64
2022/05/23 05:49:24;;;;;;;4.82;3.00;;;16.30;73.80;;;;;;5053986;28;20025;-66
2022/05/23 05:51:52;;;;;;;3.60;3.25;;;16.30;73.50;;;;;;5051466;28;20396;-66
2022/05/23 05:54:21;;;;;;;5.10;3.40;;;16.30;73.50;;;;;;5048453;28;20783;-66
2022/05/23 05:56:48;;;;;;;7.75;3.75;;;16.30;73.30;;;;;;5047981;28;20348;-66
2022/05/23 05:59:15;;;;;;;7.90;3.53;;;16.30;73.20;;;;;;5054080;28;20056;-66
2022/05/23 06:01:40;;;;;;;4.20;3.20;;;16.40;73.30;;;;;;5055473;28;20029;-66
2022/05/23 06:04:06;;;;;;;4.28;3.38;;;16.50;73.20;;;;;;5051539;28;20041;-66
2022/05/23 06:12:00;;;;;;;4.22;3.22;;;16.80;72.60;;;;;;5048601;28;20160;-66
2022/05/23 06:14:26;;;;;;;6.00;3.30;;;16.90;72.60;;;;;;5056008;28;20108;-67
2022/05/23 06:16:52;;;;;;;4.47;3.70;;;17.00;72.70;;;;;;5055345;28;20052;-67
2022/05/23 06:19:17;;;;;;;6.80;3.70;;;17.10;73.00;;;;;;5054557;28;20032;-67
2022/05/23 06:21:43;;;;;;;3.85;3.25;;;17.20;73.10;;;;;;5052216;28;20530;-65
2022/05/23 06:24:09;;;;;;;3.95;3.50;;;17.30;72.90;;;;;;5052090;28;20040;-65
2022/05/23 06:26:34;;;;;;;3.97;3.58;;;17.40;72.60;;;;;;5052033;28;20036;-67
2022/05/23 06:29:00;;;;;;;4.28;3.60;;;17.60;72.40;;;;;;5056295;28;20064;-67
2022/05/23 06:31:26;;;;;;;6.13;4.25;;;17.60;72.00;;;;;;5056453;28;20087;-66
2022/05/23 06:33:51;;;;;;;5.72;3.72;;;17.70;71.90;;;;;;5055934;28;20639;-67
2022/05/23 06:36:18;;;;;;;5.78;3.85;;;17.80;71.90;;;;;;5054981;28;20048;-66
2022/05/23 06:38:44;;;;;;;6.88;4.00;;;17.90;71.80;;;;;;5055285;28;20520;-67
2022/05/23 06:41:10;;;;;;;4.18;3.78;;;18.00;71.60;;;;;;5052557;28;20036;-66
2022/05/23 06:43:38;;;;;;;6.50;3.90;;;18.00;71.40;;;;;;5052127;28;20020;-66
2022/05/23 06:46:04;;;;;;;4.40;4.00;;;18.10;71.00;;;;;;5069389;28;20033;-67
2022/05/23 06:48:31;;;;;;;4.97;3.90;;;18.10;70.70;;;;;;5052997;28;20025;-66
2022/05/23 06:50:57;;;;;;;4.55;4.15;;;18.20;70.80;;;;;;5053332;28;20041;-66
2022/05/23 06:53:24;;;;;;;7.80;4.40;;;18.20;71.00;;;;;;5052830;28;20524;-65
2022/05/23 06:55:51;;;;;;;5.80;4.10;;;18.20;70.90;;;;;;5051533;28;20555;-66
2022/05/23 06:58:19;;;;;;;8.50;3.92;;;18.20;70.80;;;;;;5054329;28;20036;-66
2022/05/23 07:00:45;;;;;;;4.30;3.88;;;18.30;70.70;;;;;;5050941;28;20056;-66
2022/05/23 07:03:11;;;;;;;4.20;3.80;;;18.30;70.60;;;;;;5050841;28;20053;-67
2022/05/23 07:13:52;;;;;;;3.35;3.05;;;18.50;70.20;;;;;;5053569;28;20191;-65
2022/05/23 07:16:18;;;;;;;4.13;3.00;;;18.60;71.20;;;;;;5058407;28;20101;-66
2022/05/23 07:18:44;;;;;;;4.20;2.85;;;18.60;70.00;;;;;;5055402;28;21153;-66
2022/05/23 07:21:10;;;;;;;3.42;2.97;;;18.70;70.10;;;;;;5056880;28;20033;-66
2022/05/23 07:23:37;;;;;;;3.22;2.85;;;18.80;70.20;;;;;;5057610;28;20090;-66
2022/05/23 07:26:04;;;;;;;5.43;3.30;;;18.90;70.00;;;;;;5055932;28;20033;-65
2022/05/23 07:28:30;;;;;;;3.55;2.75;;;19.00;69.80;;;;;;5056446;28;20135;-66
2022/05/23 07:30:56;;;;;;;3.80;2.60;;;19.10;69.50;;;;;;5054464;28;20444;-66
2022/05/23 07:33:21;;;;;;;4.10;2.90;;;19.20;69.20;;;;;;5056733;28;20447;-66
2022/05/23 07:35:56;;;;;;;3.78;2.60;;;19.40;69.00;;;;;;5052927;28;20029;-66
2022/05/23 07:38:22;;;;;;;3.42;2.85;;;19.40;68.00;;;;;;5055937;28;20032;-66
2022/05/23 07:40:52;;;;;;;7.35;2.90;;;19.50;67.50;;;;;;5055062;28;20029;-67
2022/05/23 07:43:18;;;;;;;6.75;2.88;;;19.60;67.30;;;;;;5056902;28;20029;-66
2022/05/23 07:45:45;;;;;;;4.03;2.72;;;19.70;67.20;;;;;;5052933;28;20099;-66
2022/05/23 07:48:11;;;;;;;7.53;2.85;;;19.70;67.30;;;;;;5053847;28;20033;-66
2022/05/23 07:50:37;;;;;;;5.40;2.75;;;19.80;67.40;;;;;;5055664;28;20048;-66
2022/05/23 08:01:16;;;;;;;2.80;2.13;;;20.20;66.50;;;;;;5055465;28;20063;-66
2022/05/23 08:03:42;;;;;;;4.18;2.40;;;20.40;66.40;;;;;;5051776;28;20108;-66
2022/05/23 08:06:09;;;;;;;7.57;2.70;;;20.50;66.20;;;;;;5054394;28;20028;-66
2022/05/23 08:08:35;;;;;;;2.83;2.35;;;20.60;66.00;;;;;;5056072;28;20029;-66
2022/05/23 08:11:01;;;;;;;5.40;2.38;;;20.70;66.00;;;;;;5056617;28;20039;-66
2022/05/23 08:13:26;;;;;;;7.05;2.38;;;20.80;65.80;;;;;;5054613;28;20079;-66
2022/05/23 08:15:52;;;;;;;4.57;2.45;;;20.90;65.20;;;;;;5052922;28;20044;-66
2022/05/23 08:18:18;;;;;;;3.13;2.88;;;21.00;65.00;;;;;;5054370;28;20025;-66
2022/05/23 08:20:44;;;;;;;3.95;2.75;;;21.20;64.70;;;;;;5055395;28;24045;-67
2022/05/23 08:23:10;;;;;;;4.07;2.67;;;21.30;64.40;;;;;;5057221;28;20033;-66
2022/05/23 08:25:36;;;;;;;6.25;2.67;;;21.40;64.00;;;;;;5053592;28;20083;-66
2022/05/23 08:28:02;;;;;;;4.05;2.42;;;21.50;63.60;;;;;;5056366;28;20048;-66
2022/05/23 08:30:28;;;;;;;4.63;2.78;;;21.60;63.80;;;;;;5055254;28;20580;-66
2022/05/23 08:32:54;;;;;;;3.33;2.85;;;21.70;63.30;;;;;;5056227;28;20181;-66
2022/05/23 08:35:21;;;;;;;3.38;2.83;;;21.70;62.90;;;;;;5055524;28;20220;-66
2022/05/23 08:37:47;;;;;;;7.38;2.92;;;21.80;62.40;;;;;;5054148;28;20071;-66
2022/05/23 08:40:13;;;;;;;4.13;3.25;;;21.80;62.20;;;;;;5052949;28;20044;-66
2022/05/23 08:42:55;;;;;;;7.35;3.58;;;21.90;62.00;;;;;;5053445;28;20037;-66
2022/05/23 08:45:31;;;;;;;3.47;2.85;;;21.90;61.90;;;;;;5057538;28;20036;-66
2022/05/23 08:48:18;;;;;;;7.85;2.80;;;21.90;61.80;;;;;;5057390;28;20024;-66
2022/05/23 08:51:02;;;;;;;4.13;2.97;;;22.00;61.30;;;;;;5070719;28;20037;-66
2022/05/23 08:53:42;;;;;;;3.67;3.05;;;22.10;60.60;;;;;;5053062;28;20127;-66
2022/05/23 08:56:34;;;;;;;6.30;2.67;;;22.20;60.80;;;;;;5056850;28;20343;-66
2022/05/23 08:59:02;;;;;;;7.13;3.30;;;22.20;61.10;;;;;;5049548;28;20033;-66
2022/05/23 09:01:48;;;;;;;5.10;3.00;;;22.30;60.80;;;;;;5058245;28;20060;-66
2022/05/23 09:04:32;;;;;;;5.65;3.00;;;22.40;61.00;;;;;;5053641;28;20033;-66
2022/05/23 09:07:00;;;;;;;6.57;3.23;;;22.50;61.10;;;;;;5055901;28;20032;-66
2022/05/23 09:09:30;;;;;;;3.92;2.83;;;22.60;60.50;;;;;;5056496;28;20812;-65
2022/05/23 09:12:03;;;;;;;5.18;2.85;;;22.70;60.40;;;;;;5056516;28;20579;-66
2022/05/23 09:14:29;;;;;;;5.65;2.70;;;22.80;60.50;;;;;;5054299;28;20116;-67
2022/05/23 09:16:56;;;;;;;5.78;2.95;;;22.90;60.60;;;;;;5054358;28;20052;-66
2022/05/23 09:19:47;;;;;;;3.20;2.88;;;23.00;60.30;;;;;;5056542;28;20748;-66
2022/05/23 09:22:48;;;;;;;5.85;3.15;;;23.20;59.70;;;;;;5055894;28;20028;-66
2022/05/23 09:25:21;;;;;;;5.82;2.92;;;23.30;59.30;;;;;;5055831;28;20032;-66
2022/05/23 09:27:51;;;;;;;4.32;2.85;;;23.40;59.50;;;;;;5054568;28;20586;-67
2022/05/23 09:30:26;;;;;;;10.30;3.10;;;23.50;59.10;;;;;;5054056;28;20496;-66
2022/05/23 09:33:01;;;;;;;5.32;2.80;;;23.60;59.00;;;;;;5055159;28;20032;-66
2022/05/23 09:35:28;;;;;;;;;;;23.70;58.80;;;;;;5054586;28;20028;-66
2022/05/23 09:38:14;;;;;;;4.20;2.67;;;23.80;59.10;;;;;;5055539;28;20058;-66
2022/05/23 09:40:39;;;;;;;3.55;2.97;;;24.00;58.50;;;;;;5052409;28;20035;-66
2022/05/23 09:49:12;;;;;;;;;;;24.30;58.00;;;;;;5056173;28;20499;-66
2022/05/23 09:51:54;;;;;;;3.25;2.40;;;24.40;58.50;;;;;;5052156;28;19928;-66
2022/05/23 09:54:37;;;;;;;7.13;2.90;;;24.50;57.90;;;;;;5054398;28;20155;-66
2022/05/23 09:57:15;;;;;;;6.05;2.83;;;24.60;57.70;;;;;;5048982;28;20035;-66
2022/05/23 09:59:41;;;;;;;8.05;3.28;;;24.70;57.80;;;;;;5054848;28;20068;-66
2022/05/23 10:02:30;;;;;;;2.72;2.40;;;24.90;57.60;;;;;;5054101;28;20068;-66
2022/05/23 10:04:56;;;;;;;3.00;2.63;;;25.00;57.80;;;;;;5050277;28;20471;-66
2022/05/23 10:07:37;;;;;;;4.85;3.00;;;25.10;57.60;;;;;;5054207;28;20052;-66
2022/05/23 10:10:04;;;;;;;4.00;2.67;;;25.20;57.00;;;;;;5051850;28;20523;-64
2022/05/23 10:12:32;;;;;;;4.15;2.65;;;25.30;56.90;;;;;;5047674;28;20064;-66
2022/05/23 10:15:12;;;;;;;4.55;2.67;;;25.50;56.50;;;;;;5053754;28;20535;-66
2022/05/23 10:17:41;;;;;;;2.92;2.60;;;25.60;55.90;;;;;;5057676;28;20034;-66
2022/05/23 10:20:24;;;;;;;5.15;2.83;;;25.70;56.60;;;;;;5054450;28;20033;-66
2022/05/23 10:23:04;;;;;;;4.57;2.90;;;25.80;55.80;;;;;;5052490;28;20060;-66
2022/05/23 10:25:39;;;;;;;3.85;2.72;;;25.90;55.90;;;;;;5051972;28;20390;-66
2022/05/23 10:28:22;;;;;;;5.65;2.70;;;26.00;55.40;;;;;;5051338;28;20224;-64
2022/05/23 10:31:02;;;;;;;4.43;2.83;;;26.20;55.00;;;;;;5053243;28;20051;-66
2022/05/23 10:33:30;;;;;;;4.68;2.58;;;26.20;55.00;;;;;;5051398;28;20033;-66
2022/05/23 10:36:01;;;;;;;8.02;3.00;;;26.30;55.20;;;;;;5049751;28;20129;-66
2022/05/23 10:42:13;;;;;;;5.15;2.30;;;26.50;54.50;;;;;;5051080;28;20055;-66
2022/05/23 10:45:00;;;;;;;6.40;2.63;;;26.60;54.80;;;;;;5051801;28;20039;-66
2022/05/23 10:47:44;;;;;;;5.32;3.05;;;26.70;54.00;;;;;;5052777;28;20029;-66
2022/05/23 10:50:36;;;;;;;9.13;3.40;;;26.70;54.50;;;;;;5051522;28;20041;-66
2022/05/23 10:53:32;;;;;;;6.18;2.88;;;26.80;52.80;;;;;;5050048;28;20029;-67
2022/05/23 10:56:22;;;;;;;6.97;3.00;;;26.80;53.10;;;;;;5052554;28;20037;-66
2022/05/23 10:59:03;;;;;;;5.80;3.10;;;26.80;53.70;;;;;;5049146;28;20044;-66
2022/05/23 11:01:53;;;;;;;4.18;3.00;;;26.80;53.90;;;;;;5051067;28;20033;-67
2022/05/23 11:04:40;;;;;;;6.70;3.10;;;26.70;54.00;;;;;;5053455;28;20028;-65
2022/05/23 11:07:15;;;;;;;4.28;2.80;;;26.70;54.80;;;;;;5054602;28;20028;-66
2022/05/23 11:10:19;;;;;;;4.78;3.50;;;26.60;54.30;;;;;;5051562;28;20037;-66
2022/05/23 11:13:09;;;;;;;8.10;3.50;;;26.60;53.60;;;;;;5045671;28;20453;-66
2022/05/23 11:16:07;;;;;;;4.38;2.88;;;26.60;53.80;;;;;;5053813;28;20577;-66
2022/05/23 11:19:23;;;;;;;5.50;3.00;;;26.60;53.90;;;;;;5051854;28;20033;-67
2022/05/23 11:21:58;;;;;;;;;;;26.50;53.40;;;;;;5045720;28;20029;-66
2022/05/23 11:24:44;;;;;;;5.20;2.90;;;26.50;53.90;;;;;;5049870;28;19912;-67
2022/05/23 11:35:48;;;;;;;8.10;3.97;;;26.00;55.10;;;;;;5048266;28;20094;-67
2022/05/23 11:38:18;;;;;;;4.68;3.50;;;25.90;55.50;;;;;;5052627;28;20041;-67
2022/05/23 11:40:50;;;;;;;8.75;3.92;;;25.80;56.00;;;;;;5052039;28;20139;-66
2022/05/23 11:43:17;;;;;;;6.03;3.70;;;25.70;56.30;;;;;;5051998;28;20095;-67
2022/05/23 11:46:07;;;;;;;6.47;4.63;;;25.60;58.10;;;;;;5052637;28;20522;-66
2022/05/23 11:48:37;;;;;;;6.78;4.43;;;25.50;58.30;;;;;;5053507;28;20033;-66
2022/05/23 11:51:12;;;;;;;5.70;3.83;;;25.40;60.30;;;;;;5052007;28;20817;-67
2022/05/23 11:53:43;;;;;;;;;;;25.30;60.10;;;;;;5051823;28;20082;-66
2022/05/23 11:56:30;;;;;;;7.43;2.85;;;25.20;59.70;;;;;;5052226;28;19916;-67
2022/05/23 11:58:56;;;;;;;6.68;2.38;;;25.00;59.10;;;;;;5047980;28;20076;-67
2022/05/23 12:01:26;;;;;;;3.47;1.92;;;24.90;58.50;;;;;;5054805;28;20048;-66
2022/05/23 12:03:52;;;;;;;3.80;1.83;;;24.80;58.60;;;;;;5055773;28;20489;-66
2022/05/23 12:06:23;;;;;;;4.10;1.55;;;24.60;58.40;;;;;;5057065;28;20120;-67
2022/05/23 12:09:03;;;;;;;3.83;1.70;;;24.60;58.60;;;;;;5054997;28;20129;-67
2022/05/23 12:11:45;;;;;;;5.10;1.48;;;24.50;58.80;;;;;;5057185;28;20064;-66
2022/05/23 12:14:20;;;;;;;4.38;1.20;;;24.40;58.40;;;;;;5059822;28;20526;-67
2022/05/23 12:16:54;;;;;;;;;;;24.40;57.50;;;;;;5058893;28;20229;-67
2022/05/23 12:19:32;;;;;;;4.80;1.33;;;24.40;56.30;;;;;;5061103;28;19951;-66
2022/05/23 12:22:31;;;;;;;3.78;1.30;;;24.30;55.50;;;;;;5061481;28;20029;-66
2022/05/23 12:24:57;;;;;;;3.58;1.40;;;24.30;55.90;;;;;;5042928;28;20400;-67
2022/05/23 12:27:33;;;;;;;4.88;1.75;;;24.30;56.60;;;;;;5059356;28;20029;-67
2022/05/23 12:30:17;;;;;;;4.60;1.60;;;24.30;55.00;;;;;;5059135;28;20021;-66
2022/05/23 12:32:47;;;;;;;4.53;1.80;;;24.30;56.00;;;;;;5061059;28;20025;-67
2022/05/23 12:35:14;;;;;;;5.93;1.50;;;24.30;56.40;;;;;;5068120;28;20385;-67
2022/05/23 12:38:10;;;;;;;5.53;1.65;;;24.30;56.00;;;;;;5061462;28;20036;-67
2022/05/23 12:41:14;;;;;;;4.30;1.67;;;24.30;56.20;;;;;;5055230;28;20530;-66
2022/05/23 12:43:56;;;;;;;6.22;1.90;;;24.40;56.20;;;;;;5061603;28;20044;-66
2022/05/23 12:46:32;;;;;;;6.00;1.55;;;24.40;56.60;;;;;;5060007;28;20041;-67
2022/05/23 12:49:11;;;;;;;5.47;1.48;;;24.40;56.20;;;;;;5059772;28;20039;-67
2022/05/23 12:51:40;;;;;;;5.10;1.90;;;24.50;56.20;;;;;;5059743;28;20628;-66
2022/05/23 12:54:30;;;;;;;3.35;1.60;;;24.50;56.60;;;;;;5060346;28;20029;-67
2022/05/23 12:57:29;;;;;;;5.25;1.17;;;24.50;55.30;;;;;;5059652;28;20029;-67
2022/05/23 12:59:59;;;;;;;2.70;1.20;;;24.60;56.10;;;;;;5059724;28;20033;-67
2022/05/23 13:02:41;;;;;;;4.60;1.35;;;24.70;55.50;;;;;;5057515;28;20074;-68
2022/05/23 13:05:17;;;;;;;4.32;1.13;;;24.70;55.00;;;;;;5056859;28;20033;-66
2022/05/23 13:07:49;;;;;;;3.78;1.38;;;24.70;54.20;;;;;;5057273;28;20033;-67
2022/05/23 13:10:32;;;;;;;4.97;1.38;;;24.80;54.40;;;;;;5055987;28;20032;-67
2022/05/23 13:13:09;;;;;;;3.45;1.48;;;24.80;54.10;;;;;;5050803;28;20025;-67
2022/05/23 13:15:35;;;;;;;3.80;1.02;;;24.90;54.30;;;;;;5054259;28;20515;-66
2022/05/23 13:23:35;;;;;;;2.80;1.10;;;24.90;54.30;;;;;;5055311;28;20090;-67
2022/05/23 13:26:08;;;;;;;5.10;1.30;;;25.00;54.20;;;;;;5053446;28;20033;-66
2022/05/23 13:28:41;;;;;;;1.92;1.00;;;24.90;53.80;;;;;;5061760;28;20040;-67
2022/05/23 13:31:25;;;;;;;3.47;0.98;;;25.00;54.20;;;;;;5057090;28;20146;-67
2022/05/23 13:33:53;;;;;;;1.95;0.90;;;25.00;53.10;;;;;;5054925;28;20036;-66
2022/05/23 13:36:19;;;;;;;2.17;0.82;;;25.00;53.30;;;;;;5055078;28;20056;-65
2022/05/23 13:39:01;;;;;;;3.05;0.90;;;25.00;53.00;;;;;;5055939;28;20056;-67
2022/05/23 13:41:29;;;;;;;1.88;0.85;;;25.00;52.50;;;;;;5052764;28;20033;-67
2022/05/23 13:43:55;;;;;;;1.08;0.77;;;25.10;53.00;;;;;;5056272;28;20056;-66
2022/05/23 13:46:33;;;;;;;1.95;0.77;;;25.10;53.10;;;;;;5055772;28;20032;-67
2022/05/23 13:49:08;;;;;;;1.88;0.70;;;25.10;52.70;;;;;;5048761;28;20036;-66
2022/05/23 13:51:49;;;;;;;2.22;1.00;;;25.10;53.00;;;;;;5054868;28;20037;-66
2022/05/23 13:54:41;;;;;;;4.25;1.10;;;25.20;53.00;;;;;;5055093;28;20392;-67
2022/05/23 13:57:12;;;;;;;2.90;1.00;;;25.30;53.00;;;;;;5053036;28;20033;-66
2022/05/23 13:59:50;;;;;;;5.47;0.85;;;25.30;53.20;;;;;;5055815;28;20052;-66
2022/05/23 14:02:21;;;;;;;3.38;1.02;;;25.40;53.00;;;;;;5054228;28;20584;-67
2022/05/23 14:04:48;;;;;;;1.55;0.80;;;25.50;52.90;;;;;;5053128;28;20044;-66
2022/05/23 14:07:17;;;;;;;1.65;0.75;;;25.50;52.70;;;;;;5054875;28;20420;-67
2022/05/23 14:09:47;;;;;;;1.75;0.80;;;25.60;52.80;;;;;;5054196;28;20025;-67
2022/05/23 14:12:17;;;;;;;3.50;0.70;;;25.70;52.20;;;;;;5049176;28;20505;-64
2022/05/23 14:14:50;;;;;;;4.70;0.82;;;25.70;52.10;;;;;;5045121;28;20044;-67